Time;durP1;ratioP1;P1;durP2;ratioP2;P2;SDS_P1;SDS_P2;PMS_P1;PMS_P2;Temp;Humidity;BMP_temperature;BMP_pressure;BME280_temperature;BME280_humidity;BME280_pressure;Samples;Min_cycle;Max_cycle;Signal;HPM_P1;HPM_P2
2021/12/28 08:58:41;;;;;;;0.97;0.50;;;10.90;99.90;;;;;;2340967;23;20712;-75
2021/12/28 09:01:09;;;;;;;2.77;0.50;;;10.90;99.90;;;;;;4877935;29;20231;-77
2021/12/28 09:03:36;;;;;;;1.50;0.40;;;10.80;99.90;;;;;;4897541;29;20641;-75
2021/12/28 09:06:05;;;;;;;0.70;0.50;;;10.80;99.90;;;;;;4897215;29;20325;-75
2021/12/28 09:08:32;;;;;;;0.40;0.30;;;10.80;99.90;;;;;;4898036;29;20245;-74
2021/12/28 09:10:59;;;;;;;0.87;0.40;;;10.90;99.90;;;;;;4897721;29;20218;-74
2021/12/28 09:13:26;;;;;;;0.60;0.50;;;10.90;99.90;;;;;;4897496;29;20704;-80
2021/12/28 09:15:53;;;;;;;0.80;0.67;;;10.90;99.90;;;;;;4897821;29;20226;-75
2021/12/28 09:18:23;;;;;;;1.00;0.60;;;11.00;99.90;;;;;;4897861;29;20611;-77
2021/12/28 09:20:51;;;;;;;0.50;0.30;;;11.00;99.90;;;;;;4897159;29;20233;-82
2021/12/28 09:23:18;;;;;;;0.97;0.60;;;11.10;99.90;;;;;;4897895;29;20254;-77
2021/12/28 09:25:45;;;;;;;2.13;0.70;;;11.10;99.90;;;;;;4897039;29;20241;-85
2021/12/28 09:28:12;;;;;;;1.00;0.80;;;11.20;99.90;;;;;;4896765;29;20241;-84
2021/12/28 09:30:42;;;;;;;0.80;0.50;;;11.30;99.90;;;;;;4897008;29;20711;-77
2021/12/28 09:33:09;;;;;;;1.17;0.60;;;11.30;99.90;;;;;;4878695;29;20301;-78
2021/12/28 09:35:37;;;;;;;2.80;0.60;;;11.30;99.90;;;;;;4878724;29;20231;-79
2021/12/28 09:38:04;;;;;;;1.43;0.90;;;11.40;99.90;;;;;;4897729;29;20210;-85
2021/12/28 09:40:34;;;;;;;0.60;0.40;;;11.50;99.90;;;;;;4897557;29;20274;-81
2021/12/28 09:43:02;;;;;;;0.50;0.40;;;11.50;99.90;;;;;;4896142;29;20685;-74
2021/12/28 09:45:29;;;;;;;2.30;0.40;;;11.50;99.90;;;;;;4897245;29;20226;-83
2021/12/28 09:47:56;;;;;;;0.50;0.37;;;11.30;99.90;;;;;;4897371;29;20218;-77
2021/12/28 09:50:23;;;;;;;2.53;0.60;;;11.30;99.90;;;;;;4896828;29;20297;-77
2021/12/28 09:52:52;;;;;;;1.30;0.50;;;11.30;99.90;;;;;;4896989;29;20593;-78
2021/12/28 09:55:22;;;;;;;0.60;0.30;;;11.30;99.90;;;;;;4897043;29;20226;-78
2021/12/28 09:57:49;;;;;;;1.00;0.43;;;11.20;99.90;;;;;;4896259;29;20301;-78
2021/12/28 10:00:18;;;;;;;0.40;0.40;;;11.20;99.90;;;;;;4896930;29;20687;-74
2021/12/28 10:02:45;;;;;;;1.33;0.40;;;11.20;99.90;;;;;;4896595;29;20206;-79
2021/12/28 10:05:15;;;;;;;1.20;0.40;;;11.20;99.90;;;;;;4896379;29;20718;-73
2021/12/28 10:07:46;;;;;;;0.50;0.43;;;11.20;99.90;;;;;;4896806;29;20214;-77
2021/12/28 10:10:14;;;;;;;0.70;0.50;;;11.20;99.90;;;;;;4896556;29;20206;-78
2021/12/28 10:12:44;;;;;;;0.80;0.43;;;11.20;99.90;;;;;;4896068;29;20633;-74
2021/12/28 10:15:15;;;;;;;0.40;0.40;;;11.20;99.90;;;;;;4896702;29;20242;-75
2021/12/28 10:17:45;;;;;;;0.93;0.50;;;11.30;99.90;;;;;;4896543;29;20644;-80
2021/12/28 10:20:15;;;;;;;2.73;0.40;;;11.20;99.90;;;;;;4896240;29;20264;-77
2021/12/28 10:22:46;;;;;;;1.47;0.30;;;11.20;99.90;;;;;;4896838;29;20213;-77
2021/12/28 10:25:17;;;;;;;0.50;0.40;;;11.10;99.90;;;;;;4896393;29;20234;-75
2021/12/28 10:27:45;;;;;;;0.93;0.30;;;11.00;99.90;;;;;;4896507;29;20573;-74
2021/12/28 10:30:14;;;;;;;2.73;0.77;;;10.90;99.90;;;;;;4897389;29;20207;-76
2021/12/28 10:32:44;;;;;;;4.73;0.50;;;10.90;99.90;;;;;;4897730;29;20217;-76
2021/12/28 10:35:15;;;;;;;5.77;0.87;;;10.80;99.90;;;;;;4897990;29;20234;-76
2021/12/28 10:37:46;;;;;;;6.53;0.63;;;10.70;99.90;;;;;;4897233;29;20206;-76
2021/12/28 10:40:21;;;;;;;3.23;0.70;;;10.70;99.90;;;;;;4897671;29;20242;-77
2021/12/28 10:42:55;;;;;;;8.03;0.70;;;10.80;99.90;;;;;;4898126;29;20216;-76
2021/12/28 10:45:24;;;;;;;2.40;0.80;;;11.00;99.90;;;;;;4897729;29;20242;-76
2021/12/28 10:47:52;;;;;;;7.67;0.80;;;11.00;99.90;;;;;;4897689;29;20214;-76
2021/12/28 10:50:29;;;;;;;6.03;1.17;;;11.00;99.90;;;;;;4897624;29;20214;-76
2021/12/28 10:53:08;;;;;;;7.63;0.97;;;11.00;99.90;;;;;;4897254;29;20210;-77
2021/12/28 10:55:36;;;;;;;14.03;1.33;;;11.10;99.90;;;;;;4897584;29;20275;-76
2021/12/28 10:58:05;;;;;;;4.23;1.13;;;11.10;99.90;;;;;;4897322;29;20558;-79
2021/12/28 11:00:37;;;;;;;10.17;1.77;;;11.00;99.90;;;;;;4897439;29;20242;-76
2021/12/28 11:03:26;;;;;;;5.53;0.90;;;11.00;99.90;;;;;;4897743;29;20214;-75
2021/12/28 11:05:55;;;;;;;20.93;1.33;;;11.10;99.90;;;;;;4897478;29;20237;-75
2021/12/28 11:08:25;;;;;;;6.30;1.07;;;11.20;99.90;;;;;;4897556;29;20220;-79
2021/12/28 11:10:57;;;;;;;11.03;1.00;;;11.30;99.90;;;;;;4897765;29;20238;-82
2021/12/28 11:13:26;;;;;;;10.93;1.83;;;11.30;99.90;;;;;;4897369;29;20221;-76
2021/12/28 11:15:53;;;;;;;13.57;2.20;;;11.30;99.90;;;;;;4897413;29;20234;-76
2021/12/28 11:18:23;;;;;;;7.53;1.23;;;11.30;99.90;;;;;;4897588;29;20220;-76
2021/12/28 11:20:51;;;;;;;17.70;1.70;;;11.30;99.90;;;;;;4897584;29;20244;-82
2021/12/28 11:23:20;;;;;;;7.70;1.70;;;11.30;99.90;;;;;;4897561;29;20580;-83
2021/12/28 11:26:00;;;;;;;14.27;1.93;;;11.40;99.90;;;;;;4897392;29;20241;-81
2021/12/28 11:28:29;;;;;;;6.63;1.13;;;11.30;99.90;;;;;;4897648;29;20215;-81
2021/12/28 11:31:04;;;;;;;13.87;1.63;;;11.40;99.90;;;;;;4897502;29;20210;-76
2021/12/28 11:33:53;;;;;;;13.27;1.70;;;11.30;99.90;;;;;;4897676;29;20214;-76
2021/12/28 11:36:24;;;;;;;9.77;1.50;;;11.30;99.90;;;;;;4897491;29;20230;-75
2021/12/28 11:38:52;;;;;;;14.77;1.60;;;11.40;99.90;;;;;;4897357;29;20216;-75
2021/12/28 11:41:19;;;;;;;15.00;2.03;;;11.30;99.90;;;;;;4897237;29;20234;-76
2021/12/28 11:43:48;;;;;;;15.53;2.63;;;11.40;99.90;;;;;;4897510;29;20210;-76
2021/12/28 11:46:16;;;;;;;21.30;1.87;;;11.40;99.90;;;;;;4897155;29;20241;-76
2021/12/28 11:48:43;;;;;;;13.77;1.37;;;11.30;99.90;;;;;;4898151;29;20217;-77
2021/12/28 11:51:11;;;;;;;12.30;1.57;;;11.30;99.90;;;;;;4900460;29;20210;-76
2021/12/28 11:53:42;;;;;;;12.87;1.30;;;11.40;99.90;;;;;;4900786;29;20217;-76
2021/12/28 11:56:10;;;;;;;9.80;1.77;;;11.40;99.90;;;;;;4900914;29;20231;-79
2021/12/28 11:58:53;;;;;;;10.20;2.23;;;11.50;99.90;;;;;;4900631;29;20704;-81
2021/12/28 12:01:56;;;;;;;11.30;1.30;;;11.60;99.90;;;;;;4900300;29;20234;-77
2021/12/28 12:04:57;;;;;;;13.13;1.40;;;11.60;99.90;;;;;;4900578;29;20217;-81
2021/12/28 12:07:33;;;;;;;16.80;3.00;;;11.70;99.90;;;;;;4900629;29;20206;-76
2021/12/28 12:10:30;;;;;;;10.90;2.03;;;11.80;99.90;;;;;;4900218;29;20214;-78
2021/12/28 12:13:19;;;;;;;13.67;1.93;;;11.70;99.90;;;;;;4900317;29;20253;-79
